Terminal Aerodrome Forecast
Issued by NWS Grand Forks, ND

Home | Current Version | Previous Version | Text Only | Print | Product List | Glossary Off
Versions: 1 2 3 4 5 6 7 8 9 10 11 12 13

213
FTUS43 KFGF 152339
TAFFAR
TAF
KFAR 152339Z 1600/1624 34014KT 1SM -SN BLSN OVC009
     FM160100 34013KT 4SM BLSN BKN015
     FM160300 34010KT P6SM SCT060
     FM161600 20009KT P6SM FEW250=

USA.gov is the U.S. government's official web portal to all federal, state and local government web resources and services.